Time;durP1;ratioP1;P1;durP2;ratioP2;P2;SDS_P1;SDS_P2;PMS_P1;PMS_P2;Temp;Humidity;BMP_temperature;BMP_pressure;BME280_temperature;BME280_humidity;BME280_pressure;Samples;Min_cycle;Max_cycle;Signal;HPM_P1;HPM_P2
2023/06/04 00:01:20;;;;;;;2.50;2.30;;;15.20;78.10;;;;;;5037024;28;20025;-74
2023/06/04 00:03:45;;;;;;;2.17;1.92;;;15.20;78.20;;;;;;5034661;28;20049;-74
2023/06/04 00:06:11;;;;;;;2.17;1.90;;;15.20;78.30;;;;;;5033780;28;20076;-74
2023/06/04 00:08:37;;;;;;;4.43;2.60;;;15.10;78.10;;;;;;5034822;28;20026;-74
2023/06/04 00:11:02;;;;;;;4.28;2.83;;;15.10;77.80;;;;;;5034263;28;20548;-74
2023/06/04 00:13:28;;;;;;;4.05;2.15;;;15.10;77.50;;;;;;5034716;28;20052;-75
2023/06/04 00:15:54;;;;;;;2.78;2.42;;;15.00;77.40;;;;;;5035256;28;20025;-75
2023/06/04 00:18:19;;;;;;;2.60;2.40;;;15.00;77.10;;;;;;5038469;28;20053;-74
2023/06/04 00:20:45;;;;;;;3.42;2.70;;;15.00;76.70;;;;;;5038694;28;20127;-74
2023/06/04 00:23:11;;;;;;;2.15;1.90;;;15.00;76.30;;;;;;5038665;28;20033;-75
2023/06/04 00:25:37;;;;;;;2.47;2.08;;;15.00;76.00;;;;;;5047521;28;20028;-75
2023/06/04 00:28:02;;;;;;;3.20;2.50;;;15.00;75.80;;;;;;5048860;28;20090;-75
2023/06/04 00:30:28;;;;;;;2.40;2.05;;;14.90;75.60;;;;;;5052130;28;20489;-75
2023/06/04 00:32:54;;;;;;;3.80;2.95;;;14.90;75.50;;;;;;5034335;28;20116;-74
2023/06/04 00:35:20;;;;;;;3.08;2.50;;;14.90;75.40;;;;;;5033648;28;20498;-75
2023/06/04 00:37:46;;;;;;;2.75;2.00;;;14.80;75.10;;;;;;5034112;28;20100;-74
2023/06/04 00:40:12;;;;;;;2.83;2.13;;;14.80;74.80;;;;;;5034364;28;20119;-75
2023/06/04 00:42:37;;;;;;;2.78;2.53;;;14.80;74.20;;;;;;5033907;28;20021;-75
2023/06/04 00:45:05;;;;;;;2.72;2.13;;;14.80;73.90;;;;;;5035072;28;20025;-74
2023/06/04 00:47:31;;;;;;;2.38;2.15;;;14.80;73.60;;;;;;5044935;28;20009;-74
2023/06/04 00:49:58;;;;;;;2.13;1.92;;;14.80;73.20;;;;;;5051874;28;20079;-74
2023/06/04 00:52:24;;;;;;;2.30;2.10;;;14.70;73.10;;;;;;5047903;28;20068;-72
2023/06/04 00:54:51;;;;;;;2.15;2.00;;;14.70;72.90;;;;;;5049854;28;20052;-74
2023/06/04 00:57:16;;;;;;;2.63;2.15;;;14.70;73.10;;;;;;5063331;28;20033;-73
2023/06/04 00:59:42;;;;;;;3.05;2.15;;;14.70;72.90;;;;;;5072057;28;20088;-73
2023/06/04 01:02:11;;;;;;;2.20;1.90;;;14.70;72.80;;;;;;5064589;28;20092;-76
2023/06/04 01:04:49;;;;;;;2.55;1.88;;;14.60;73.20;;;;;;5033461;28;20036;-74
2023/06/04 01:07:16;;;;;;;3.00;2.15;;;14.50;73.30;;;;;;5033876;28;20025;-75
2023/06/04 01:09:43;;;;;;;2.90;1.90;;;14.50;73.50;;;;;;5033802;28;20513;-75
2023/06/04 01:12:10;;;;;;;3.25;2.22;;;14.40;73.70;;;;;;5033078;28;20032;-75
2023/06/04 01:14:37;;;;;;;2.20;2.00;;;14.40;73.90;;;;;;5031295;28;20037;-75
2023/06/04 01:17:51;;;;;;;2.83;2.38;;;14.30;74.20;;;;;;5033341;28;20034;-75
2023/06/04 01:20:34;;;;;;;1.77;1.67;;;14.30;74.60;;;;;;5001226;28;20085;-75
2023/06/04 01:23:33;;;;;;;2.08;1.85;;;14.10;74.80;;;;;;5033068;28;20025;-74
2023/06/04 01:26:03;;;;;;;2.20;1.92;;;14.10;75.10;;;;;;5043694;28;20029;-76
2023/06/04 01:28:32;;;;;;;1.90;1.77;;;14.00;75.20;;;;;;5036590;28;20029;-74
2023/06/04 01:30:59;;;;;;;2.90;1.98;;;14.00;75.30;;;;;;5033483;28;20068;-76
2023/06/04 01:33:25;;;;;;;2.47;2.05;;;14.00;75.20;;;;;;5032647;28;20136;-76
2023/06/04 01:35:51;;;;;;;4.18;2.25;;;13.90;75.30;;;;;;5033374;28;20460;-75
2023/06/04 01:38:17;;;;;;;2.40;1.65;;;13.90;75.50;;;;;;5033272;28;20029;-76
2023/06/04 01:40:42;;;;;;;1.77;1.67;;;13.90;75.70;;;;;;5033685;28;20512;-75
2023/06/04 01:43:08;;;;;;;3.55;1.73;;;13.80;75.90;;;;;;5032874;28;20087;-75
2023/06/04 01:45:34;;;;;;;2.30;1.90;;;13.80;76.10;;;;;;5032344;28;20065;-76
2023/06/04 01:48:02;;;;;;;2.47;1.75;;;13.70;76.40;;;;;;5033553;28;20440;-75
2023/06/04 01:50:28;;;;;;;3.00;1.88;;;13.70;76.70;;;;;;5034636;28;20429;-76
2023/06/04 01:52:54;;;;;;;1.58;1.48;;;13.60;76.80;;;;;;5034649;28;20033;-76
2023/06/04 01:55:20;;;;;;;2.30;1.48;;;13.60;76.80;;;;;;5033119;28;20025;-76
2023/06/04 01:57:50;;;;;;;2.10;1.63;;;13.60;77.10;;;;;;5037508;28;20370;-74
2023/06/04 02:00:16;;;;;;;2.03;1.58;;;13.60;77.20;;;;;;5035255;28;20025;-74
2023/06/04 02:02:44;;;;;;;1.80;1.38;;;13.50;77.10;;;;;;5033885;28;20029;-74
2023/06/04 02:05:10;;;;;;;1.88;1.40;;;13.50;76.90;;;;;;5032788;28;20049;-76
2023/06/04 02:07:38;;;;;;;1.17;1.08;;;13.50;76.90;;;;;;5035777;28;20678;-76
2023/06/04 02:10:07;;;;;;;3.25;1.90;;;13.50;77.00;;;;;;5040376;28;20025;-76
2023/06/04 02:12:35;;;;;;;1.30;1.20;;;13.40;77.00;;;;;;5048352;28;20025;-76
2023/06/04 02:15:01;;;;;;;1.73;1.63;;;13.40;77.20;;;;;;5046294;28;20033;-76
2023/06/04 02:17:26;;;;;;;2.95;1.70;;;13.40;77.10;;;;;;5051762;28;20030;-73
2023/06/04 02:19:52;;;;;;;2.50;1.73;;;13.30;77.10;;;;;;5053311;28;20029;-73
2023/06/04 02:22:18;;;;;;;1.80;1.50;;;13.30;77.40;;;;;;5039188;28;20026;-76
2023/06/04 02:24:45;;;;;;;2.88;2.08;;;13.30;77.50;;;;;;5036562;28;20038;-74
2023/06/04 02:27:11;;;;;;;1.70;1.60;;;13.20;77.90;;;;;;5036858;28;20090;-75
2023/06/04 02:29:40;;;;;;;3.22;2.15;;;13.20;78.30;;;;;;5037252;28;20479;-75
2023/06/04 02:32:06;;;;;;;2.50;1.90;;;13.10;78.60;;;;;;5036425;28;20037;-74
2023/06/04 02:34:33;;;;;;;3.03;1.85;;;13.10;78.80;;;;;;5040231;28;20029;-74
2023/06/04 02:37:00;;;;;;;1.70;1.60;;;13.00;79.10;;;;;;5038158;28;20493;-75
2023/06/04 02:39:25;;;;;;;1.67;1.58;;;13.00;79.40;;;;;;5036251;28;20025;-75
2023/06/04 02:41:51;;;;;;;1.40;1.30;;;13.00;79.70;;;;;;5055419;28;20087;-75
2023/06/04 02:44:17;;;;;;;1.70;1.60;;;12.90;79.80;;;;;;5056183;28;20029;-74
2023/06/04 02:46:43;;;;;;;1.15;1.10;;;13.00;79.90;;;;;;5040497;28;20026;-75
2023/06/04 02:49:13;;;;;;;1.40;1.23;;;13.00;79.70;;;;;;5037113;28;20029;-76
2023/06/04 02:51:42;;;;;;;1.20;1.10;;;13.00;79.50;;;;;;5035203;28;20010;-74
2023/06/04 02:54:08;;;;;;;1.77;1.27;;;13.00;79.20;;;;;;5036361;28;20033;-75
2023/06/04 02:56:35;;;;;;;1.25;1.15;;;13.00;79.20;;;;;;5035841;28;20509;-74
2023/06/04 02:59:01;;;;;;;1.25;1.08;;;13.00;79.10;;;;;;5034986;28;20114;-76
2023/06/04 03:01:27;;;;;;;1.30;1.20;;;13.00;79.10;;;;;;5036292;28;20471;-76
2023/06/04 03:03:53;;;;;;;1.25;1.13;;;12.90;79.10;;;;;;5036533;28;20033;-72
2023/06/04 03:06:21;;;;;;;1.88;1.33;;;12.90;79.50;;;;;;5039336;28;20018;-73
2023/06/04 03:08:50;;;;;;;1.48;1.35;;;12.90;79.80;;;;;;5037269;28;20060;-74
2023/06/04 03:11:20;;;;;;;2.10;1.67;;;12.80;80.10;;;;;;5046911;28;20789;-75
2023/06/04 03:13:47;;;;;;;1.85;1.75;;;12.80;80.50;;;;;;5056027;28;20075;-75
2023/06/04 03:16:13;;;;;;;2.40;2.20;;;12.70;80.90;;;;;;5052561;28;20028;-76
2023/06/04 03:18:43;;;;;;;2.75;2.00;;;12.70;81.00;;;;;;5036906;28;20018;-76
2023/06/04 03:21:12;;;;;;;2.25;2.03;;;12.60;81.40;;;;;;5036457;28;20021;-76
2023/06/04 03:23:38;;;;;;;2.40;1.98;;;12.60;81.50;;;;;;5037164;28;20052;-76
2023/06/04 03:26:04;;;;;;;2.03;1.90;;;12.50;81.60;;;;;;5020158;28;20034;-75
2023/06/04 03:28:31;;;;;;;2.85;2.10;;;12.50;81.90;;;;;;5028785;28;20113;-72
2023/06/04 03:30:57;;;;;;;2.22;2.03;;;12.50;82.50;;;;;;5035993;28;20116;-71
2023/06/04 03:33:24;;;;;;;2.67;2.20;;;12.40;82.80;;;;;;5035588;28;20079;-72
2023/06/04 03:35:52;;;;;;;4.35;1.98;;;12.40;83.40;;;;;;5034765;28;20359;-72
2023/06/04 03:38:18;;;;;;;3.13;2.30;;;12.40;84.10;;;;;;5035412;28;20025;-72
2023/06/04 03:40:45;;;;;;;2.15;1.73;;;12.30;85.20;;;;;;5043513;28;20021;-71
2023/06/04 03:43:11;;;;;;;2.75;2.22;;;12.30;85.10;;;;;;5048016;28;20009;-72
2023/06/04 03:45:37;;;;;;;3.05;2.33;;;12.20;85.50;;;;;;5054373;28;20044;-71
2023/06/04 03:48:02;;;;;;;2.42;2.00;;;12.20;86.10;;;;;;5052857;28;20079;-72
2023/06/04 03:50:28;;;;;;;3.25;2.17;;;12.20;86.70;;;;;;5054374;28;20025;-71
2023/06/04 03:52:54;;;;;;;4.63;2.28;;;12.20;87.20;;;;;;5054871;28;20100;-72
2023/06/04 03:55:19;;;;;;;2.58;1.83;;;12.20;87.50;;;;;;5054223;28;20416;-73
2023/06/04 03:57:45;;;;;;;5.05;1.88;;;12.20;87.90;;;;;;5054433;28;20031;-71
2023/06/04 04:00:12;;;;;;;3.15;2.10;;;12.20;88.30;;;;;;5053839;28;20107;-72
2023/06/04 04:02:38;;;;;;;2.33;2.13;;;12.20;88.70;;;;;;5036801;28;20108;-72
2023/06/04 04:05:04;;;;;;;2.13;1.85;;;12.20;89.20;;;;;;5034081;28;20031;-72
2023/06/04 04:07:29;;;;;;;2.42;2.20;;;12.20;89.50;;;;;;5035039;28;20029;-72
2023/06/04 04:09:55;;;;;;;2.13;1.92;;;12.20;89.90;;;;;;5037168;28;20100;-72
2023/06/04 04:12:21;;;;;;;2.20;1.90;;;12.30;90.00;;;;;;5045693;28;20028;-72
2023/06/04 04:14:47;;;;;;;2.00;1.90;;;12.30;90.00;;;;;;5038133;28;20037;-71
2023/06/04 04:17:14;;;;;;;2.53;1.92;;;12.40;90.10;;;;;;5033913;28;20073;-72
2023/06/04 04:19:39;;;;;;;2.25;1.88;;;12.40;90.20;;;;;;5033215;28;20037;-73
2023/06/04 04:22:06;;;;;;;2.60;2.40;;;12.40;90.20;;;;;;5033159;28;20021;-73
2023/06/04 04:24:34;;;;;;;2.15;1.90;;;12.40;90.40;;;;;;5034020;28;20327;-72
2023/06/04 04:27:03;;;;;;;2.53;2.13;;;12.50;90.50;;;;;;5034749;28;20026;-71
2023/06/04 04:29:32;;;;;;;2.22;2.03;;;12.50;90.50;;;;;;5033920;28;20032;-73
2023/06/04 04:32:00;;;;;;;2.45;2.25;;;12.60;90.50;;;;;;5033051;28;20510;-71
2023/06/04 04:34:27;;;;;;;2.65;2.38;;;12.60;90.50;;;;;;5033086;28;20419;-73
2023/06/04 04:36:53;;;;;;;2.58;2.10;;;12.60;90.50;;;;;;5032512;28;20076;-73
2023/06/04 04:39:23;;;;;;;2.42;2.00;;;12.70;90.60;;;;;;5034748;28;20057;-72
2023/06/04 04:41:49;;;;;;;2.30;2.10;;;12.80;90.50;;;;;;5041507;28;20034;-73
2023/06/04 04:44:14;;;;;;;2.80;2.33;;;12.80;90.50;;;;;;5033497;28;20040;-73
2023/06/04 04:46:40;;;;;;;2.10;1.90;;;12.80;90.50;;;;;;5034824;28;20033;-72
2023/06/04 04:49:06;;;;;;;1.88;1.77;;;12.90;90.40;;;;;;5034496;28;20022;-72
2023/06/04 04:51:31;;;;;;;3.13;2.45;;;13.00;90.30;;;;;;5034808;28;20040;-72
2023/06/04 04:54:00;;;;;;;1.83;1.65;;;13.10;90.30;;;;;;5033900;28;20033;-72
2023/06/04 04:56:26;;;;;;;3.60;2.20;;;13.20;89.80;;;;;;5036707;28;20037;-74
2023/06/04 04:58:53;;;;;;;1.98;1.77;;;13.30;89.20;;;;;;5036378;28;20026;-73
2023/06/04 05:01:20;;;;;;;5.07;2.47;;;13.40;88.50;;;;;;5041085;28;20025;-72
2023/06/04 05:03:45;;;;;;;4.25;2.30;;;13.50;86.80;;;;;;5043609;28;20048;-73
2023/06/04 05:06:11;;;;;;;2.72;2.10;;;13.60;85.50;;;;;;5041839;28;20070;-73
2023/06/04 05:08:36;;;;;;;2.95;2.47;;;13.80;84.20;;;;;;5039397;28;20486;-73
2023/06/04 05:11:02;;;;;;;2.22;2.03;;;14.30;83.80;;;;;;5050068;28;20080;-74
2023/06/04 05:13:28;;;;;;;2.63;1.95;;;16.30;79.50;;;;;;5053972;28;20080;-72
2023/06/04 05:15:53;;;;;;;1.80;1.65;;;18.50;72.20;;;;;;5045356;28;20545;-78
2023/06/04 05:18:28;;;;;;;2.10;1.90;;;20.30;64.10;;;;;;5033948;28;20106;-74
2023/06/04 05:20:54;;;;;;;1.35;1.10;;;21.50;59.20;;;;;;5034268;28;20072;-75
2023/06/04 05:23:20;;;;;;;1.27;1.17;;;22.90;56.30;;;;;;5032879;28;20025;-75
2023/06/04 05:25:48;;;;;;;1.55;1.33;;;23.90;52.70;;;;;;5033604;28;20029;-75
2023/06/04 05:28:14;;;;;;;1.55;1.02;;;24.80;49.80;;;;;;5033704;28;20034;-75
2023/06/04 05:30:41;;;;;;;1.35;1.25;;;25.40;48.00;;;;;;5033917;28;20021;-74
2023/06/04 05:33:17;;;;;;;1.45;1.35;;;25.90;46.10;;;;;;5034416;28;20032;-74
2023/06/04 05:35:51;;;;;;;2.50;1.85;;;26.20;44.80;;;;;;5033366;28;20026;-74
2023/06/04 05:38:20;;;;;;;1.52;1.42;;;26.20;44.90;;;;;;5033731;28;20067;-75
2023/06/04 05:40:46;;;;;;;1.42;1.27;;;26.70;44.90;;;;;;5041564;28;20021;-73
2023/06/04 05:43:12;;;;;;;1.95;1.60;;;27.20;43.00;;;;;;5050280;28;20415;-73
2023/06/04 05:45:38;;;;;;;1.25;1.15;;;27.40;42.90;;;;;;5057476;28;20056;-73
2023/06/04 05:48:04;;;;;;;1.58;1.48;;;27.60;41.70;;;;;;5057336;28;20025;-74
2023/06/04 05:50:31;;;;;;;2.97;1.77;;;27.40;41.60;;;;;;5058121;28;20419;-75
2023/06/04 05:52:57;;;;;;;1.73;1.60;;;27.20;41.80;;;;;;5043940;28;20493;-75
2023/06/04 05:55:23;;;;;;;2.22;1.95;;;26.90;42.50;;;;;;5035586;28;20038;-75
2023/06/04 05:57:51;;;;;;;3.40;2.03;;;26.80;41.90;;;;;;5036992;28;20076;-74
2023/06/04 06:00:18;;;;;;;1.88;1.77;;;26.70;42.80;;;;;;5042328;28;20066;-74
2023/06/04 06:02:45;;;;;;;3.03;2.30;;;26.70;42.50;;;;;;5042153;28;20026;-72
2023/06/04 06:05:11;;;;;;;1.95;1.70;;;26.40;42.30;;;;;;5042610;28;20032;-74
2023/06/04 06:07:37;;;;;;;2.33;2.13;;;26.20;43.00;;;;;;5041232;28;20049;-75
2023/06/04 06:10:04;;;;;;;1.60;1.50;;;26.50;42.80;;;;;;5041296;28;20066;-75
2023/06/04 06:12:30;;;;;;;1.38;1.30;;;26.70;42.80;;;;;;5049168;28;20030;-73
2023/06/04 06:14:56;;;;;;;3.33;2.42;;;27.30;41.90;;;;;;5039799;28;20021;-75
2023/06/04 06:17:22;;;;;;;2.63;2.10;;;27.30;41.30;;;;;;5040235;28;20029;-74
2023/06/04 06:19:48;;;;;;;2.05;1.90;;;27.00;42.10;;;;;;5040396;28;20021;-74
2023/06/04 06:22:15;;;;;;;2.03;1.70;;;27.10;42.60;;;;;;5040665;28;20018;-74
2023/06/04 06:24:44;;;;;;;1.58;1.48;;;27.10;42.40;;;;;;5039699;28;20037;-74
2023/06/04 06:27:10;;;;;;;1.50;1.40;;;27.50;42.70;;;;;;5040716;28;20060;-75
2023/06/04 06:29:36;;;;;;;1.10;1.10;;;28.30;42.30;;;;;;5044607;28;20029;-73
2023/06/04 06:32:03;;;;;;;1.48;1.38;;;28.90;41.00;;;;;;5043843;28;20025;-73
2023/06/04 06:34:29;;;;;;;2.15;1.85;;;29.20;40.10;;;;;;5040398;28;20017;-74
2023/06/04 06:36:54;;;;;;;1.77;1.60;;;28.80;39.80;;;;;;5057157;28;20107;-71
2023/06/04 06:39:20;;;;;;;2.42;1.55;;;28.80;40.70;;;;;;5051354;28;20021;-74
2023/06/04 06:41:46;;;;;;;2.20;1.90;;;28.40;40.60;;;;;;5051140;28;20043;-75
2023/06/04 06:44:11;;;;;;;1.70;1.60;;;28.30;40.90;;;;;;5035526;28;20450;-74
2023/06/04 06:46:37;;;;;;;1.63;1.52;;;28.30;41.90;;;;;;5036303;28;20434;-74
2023/06/04 06:49:03;;;;;;;1.20;1.20;;;28.70;40.70;;;;;;5036194;28;20033;-73
2023/06/04 06:51:28;;;;;;;1.55;1.45;;;29.10;40.40;;;;;;5037351;28;20101;-74
2023/06/04 06:53:54;;;;;;;1.15;1.15;;;29.50;39.90;;;;;;5053737;28;20075;-72
2023/06/04 06:56:20;;;;;;;1.17;1.17;;;29.80;39.40;;;;;;5060777;28;20033;-73
2023/06/04 06:58:46;;;;;;;1.60;1.50;;;30.10;39.10;;;;;;5057599;28;20055;-73
2023/06/04 07:01:12;;;;;;;1.33;1.23;;;29.80;38.60;;;;;;5060537;28;20030;-74
2023/06/04 07:03:40;;;;;;;1.27;1.25;;;29.50;39.20;;;;;;5059324;28;20060;-74
2023/06/04 07:06:06;;;;;;;1.50;1.50;;;29.80;39.20;;;;;;5073214;28;20021;-74
2023/06/04 07:08:33;;;;;;;1.50;1.40;;;29.90;39.30;;;;;;5065524;28;20036;-73
2023/06/04 07:11:01;;;;;;;1.35;1.27;;;29.80;39.10;;;;;;5061666;28;20099;-75
2023/06/04 07:13:27;;;;;;;1.40;1.30;;;29.50;39.70;;;;;;5050178;28;20021;-74
2023/06/04 07:15:53;;;;;;;1.20;1.20;;;28.80;39.20;;;;;;5041474;28;20106;-75
2023/06/04 07:18:19;;;;;;;1.50;1.40;;;27.10;40.30;;;;;;5032959;28;20510;-75
2023/06/04 07:20:45;;;;;;;2.40;1.70;;;25.10;43.40;;;;;;5020290;28;20029;-73
2023/06/04 07:23:10;;;;;;;3.63;2.30;;;23.40;45.60;;;;;;5035190;28;20013;-73
2023/06/04 07:25:36;;;;;;;3.47;2.55;;;21.90;48.50;;;;;;5035469;28;20033;-73
2023/06/04 07:28:03;;;;;;;4.25;2.17;;;20.80;50.80;;;;;;5034663;28;20089;-73
2023/06/04 07:30:31;;;;;;;1.70;1.60;;;20.00;52.90;;;;;;5035509;28;20029;-73
2023/06/04 07:32:57;;;;;;;2.25;1.75;;;19.40;54.50;;;;;;5035031;28;20032;-74
2023/06/04 07:35:23;;;;;;;2.70;1.85;;;19.20;55.70;;;;;;5032444;28;20041;-74
2023/06/04 07:37:49;;;;;;;2.65;1.90;;;19.10;56.70;;;;;;5035692;28;20084;-73
2023/06/04 07:40:16;;;;;;;5.13;2.17;;;19.00;56.70;;;;;;5032933;28;20023;-73
2023/06/04 07:42:43;;;;;;;4.25;2.38;;;18.90;57.30;;;;;;5039521;28;20088;-73
2023/06/04 07:45:09;;;;;;;4.80;2.70;;;18.90;57.80;;;;;;5032699;28;20022;-73
2023/06/04 07:47:38;;;;;;;2.95;2.47;;;18.80;58.10;;;;;;5034613;28;20116;-74
2023/06/04 07:50:05;;;;;;;4.38;1.63;;;18.70;58.30;;;;;;5035239;28;20025;-75
2023/06/04 07:52:31;;;;;;;3.13;2.10;;;18.70;58.80;;;;;;5034462;28;20042;-74
2023/06/04 07:54:57;;;;;;;2.25;2.00;;;18.80;59.20;;;;;;5029983;28;20034;-74
2023/06/04 07:57:23;;;;;;;3.47;1.95;;;18.90;58.80;;;;;;5015894;28;20037;-73
2023/06/04 07:59:49;;;;;;;5.00;2.70;;;18.90;59.10;;;;;;5015268;28;20026;-73
2023/06/04 08:02:16;;;;;;;5.75;2.92;;;18.90;59.40;;;;;;5015464;28;20120;-74
2023/06/04 08:04:42;;;;;;;4.55;2.70;;;18.80;59.50;;;;;;5014064;28;20426;-73
2023/06/04 08:07:08;;;;;;;5.20;2.20;;;18.80;60.00;;;;;;5027116;28;20401;-74
2023/06/04 08:09:34;;;;;;;4.00;2.47;;;18.90;60.40;;;;;;5032625;28;20091;-73
2023/06/04 08:11:59;;;;;;;3.22;2.55;;;19.00;60.00;;;;;;5043639;28;20067;-73
2023/06/04 08:14:27;;;;;;;3.00;1.98;;;19.20;59.40;;;;;;5052389;28;20025;-73
2023/06/04 08:16:53;;;;;;;4.18;2.75;;;19.30;59.60;;;;;;5036884;28;20605;-74
2023/06/04 08:19:19;;;;;;;4.30;2.30;;;19.40;58.70;;;;;;5039075;28;20052;-73
2023/06/04 08:21:45;;;;;;;4.28;2.50;;;19.40;58.90;;;;;;5034400;28;20026;-73
2023/06/04 08:24:11;;;;;;;3.20;2.00;;;19.50;58.70;;;;;;5032527;28;20006;-73
2023/06/04 08:26:37;;;;;;;4.05;2.53;;;19.60;58.80;;;;;;5034152;28;20036;-72
2023/06/04 08:29:06;;;;;;;4.70;2.47;;;19.60;58.50;;;;;;5034278;28;20025;-72
2023/06/04 08:31:32;;;;;;;4.13;2.00;;;19.70;58.50;;;;;;5034289;28;20475;-72
2023/06/04 08:33:58;;;;;;;2.72;2.00;;;19.70;58.60;;;;;;5051460;28;20035;-74
2023/06/04 08:36:24;;;;;;;2.25;2.05;;;20.00;58.40;;;;;;5046085;28;20057;-74
2023/06/04 08:38:52;;;;;;;5.20;3.17;;;20.20;57.90;;;;;;5039569;28;20018;-73
2023/06/04 08:41:39;;;;;;;6.95;2.55;;;20.20;57.60;;;;;;5034024;28;20044;-71
2023/06/04 08:44:06;;;;;;;4.95;2.30;;;20.20;57.30;;;;;;5014386;28;20029;-73
2023/06/04 08:46:39;;;;;;;3.13;2.05;;;20.20;57.60;;;;;;5014826;28;20053;-73
2023/06/04 08:49:06;;;;;;;4.18;2.17;;;20.20;57.30;;;;;;5014450;28;20079;-73
2023/06/04 08:51:36;;;;;;;2.10;1.88;;;20.30;57.30;;;;;;5023683;28;20022;-73
2023/06/04 08:54:07;;;;;;;2.00;1.80;;;20.60;57.00;;;;;;5033117;28;20482;-73
2023/06/04 08:56:33;;;;;;;2.10;1.90;;;20.70;56.10;;;;;;5033802;28;20045;-73
2023/06/04 08:59:08;;;;;;;6.93;2.75;;;20.90;55.80;;;;;;5034069;28;20091;-73
2023/06/04 09:01:36;;;;;;;4.13;2.30;;;21.00;55.30;;;;;;5032855;28;20029;-73
2023/06/04 09:04:07;;;;;;;2.60;2.13;;;21.00;55.50;;;;;;5033311;28;20431;-73
2023/06/04 09:06:33;;;;;;;2.25;1.98;;;21.10;55.60;;;;;;5032690;28;20494;-73
2023/06/04 09:09:03;;;;;;;2.28;1.88;;;21.20;54.70;;;;;;5032844;28;20045;-73
2023/06/04 09:11:53;;;;;;;5.70;2.17;;;21.30;54.80;;;;;;5037585;28;20467;-73
2023/06/04 09:14:19;;;;;;;5.72;2.45;;;21.60;54.40;;;;;;5008465;28;20042;-74
2023/06/04 09:16:54;;;;;;;4.55;2.45;;;21.60;54.50;;;;;;5017212;28;20045;-75
2023/06/04 09:19:21;;;;;;;3.30;2.30;;;21.60;54.30;;;;;;5018419;28;20475;-73
2023/06/04 09:21:57;;;;;;;2.33;2.13;;;21.80;53.90;;;;;;5021246;28;20029;-73
2023/06/04 09:24:25;;;;;;;2.88;2.03;;;21.90;52.50;;;;;;5036791;28;20052;-72
2023/06/04 09:26:51;;;;;;;3.65;1.95;;;22.00;51.90;;;;;;5037397;28;20501;-73
2023/06/04 09:29:17;;;;;;;2.78;2.17;;;22.10;51.80;;;;;;5038148;28;20026;-73
2023/06/04 09:31:47;;;;;;;3.50;2.53;;;22.30;50.80;;;;;;5038801;28;20027;-72
2023/06/04 09:34:13;;;;;;;2.55;2.00;;;22.20;50.40;;;;;;5037751;28;20464;-73
2023/06/04 09:36:39;;;;;;;3.58;2.30;;;22.10;50.40;;;;;;5037218;28;20375;-72
2023/06/04 09:39:15;;;;;;;2.58;2.10;;;22.20;50.40;;;;;;5039286;28;20079;-74
2023/06/04 09:41:41;;;;;;;6.65;2.38;;;22.40;50.20;;;;;;5046205;28;20021;-73
2023/06/04 09:44:10;;;;;;;3.80;2.30;;;22.40;49.70;;;;;;5036718;28;20031;-73
2023/06/04 09:46:36;;;;;;;2.47;1.83;;;22.40;49.50;;;;;;5037773;28;20032;-73
2023/06/04 09:49:03;;;;;;;3.60;1.98;;;22.50;49.50;;;;;;5037662;28;20033;-72
2023/06/04 09:51:30;;;;;;;3.30;2.00;;;22.70;49.30;;;;;;5038350;28;20017;-72
2023/06/04 09:54:03;;;;;;;3.33;2.35;;;22.90;49.00;;;;;;5040603;28;20534;-73
2023/06/04 09:56:29;;;;;;;3.30;2.20;;;23.10;48.60;;;;;;5039103;28;20056;-75
2023/06/04 09:59:01;;;;;;;5.03;2.45;;;23.10;48.60;;;;;;5038645;28;20056;-73
2023/06/04 10:01:29;;;;;;;3.95;2.50;;;23.10;48.80;;;;;;5038454;28;20037;-73
2023/06/04 10:04:02;;;;;;;3.72;2.03;;;23.00;48.60;;;;;;5035104;28;20021;-74
2023/06/04 10:06:32;;;;;;;6.82;2.80;;;23.00;48.30;;;;;;5038073;28;20021;-73
2023/06/04 10:09:03;;;;;;;3.00;2.58;;;23.10;47.00;;;;;;5043417;28;20025;-73
2023/06/04 10:11:46;;;;;;;2.55;2.00;;;22.90;47.70;;;;;;5045167;28;20018;-73
2023/06/04 10:14:21;;;;;;;2.60;2.40;;;23.10;48.00;;;;;;5027379;28;20029;-72
2023/06/04 10:16:48;;;;;;;2.30;2.10;;;23.20;48.40;;;;;;5044473;28;20033;-73
2023/06/04 10:19:16;;;;;;;2.42;2.22;;;23.40;48.00;;;;;;5047849;28;20024;-73
2023/06/04 10:21:43;;;;;;;3.63;2.63;;;23.50;47.40;;;;;;5047374;28;20475;-73
2023/06/04 10:24:08;;;;;;;3.65;2.63;;;23.60;47.10;;;;;;5047351;28;20037;-74
2023/06/04 10:26:35;;;;;;;6.05;3.28;;;23.50;46.60;;;;;;5044506;28;20033;-73
2023/06/04 10:29:02;;;;;;;3.63;2.67;;;23.40;47.50;;;;;;5049532;28;20025;-73
2023/06/04 10:31:28;;;;;;;5.25;3.08;;;23.50;46.40;;;;;;5047155;28;20021;-74
2023/06/04 10:33:55;;;;;;;3.45;2.17;;;23.50;46.50;;;;;;5036672;28;20037;-73
2023/06/04 10:36:23;;;;;;;3.75;2.33;;;23.30;46.40;;;;;;5035880;28;20022;-74
2023/06/04 10:38:50;;;;;;;2.80;2.50;;;23.10;47.00;;;;;;5036527;28;20076;-73
2023/06/04 10:41:17;;;;;;;3.75;2.35;;;23.20;47.60;;;;;;5044177;28;20158;-73
2023/06/04 10:43:49;;;;;;;2.78;2.47;;;23.30;47.50;;;;;;5039534;28;20033;-73
2023/06/04 10:46:21;;;;;;;2.35;2.15;;;23.60;46.30;;;;;;5035930;28;20346;-73
2023/06/04 10:48:50;;;;;;;3.50;2.30;;;23.60;46.40;;;;;;5035475;28;20458;-73
2023/06/04 10:51:29;;;;;;;4.38;2.58;;;23.80;46.50;;;;;;5036667;28;20037;-72
2023/06/04 10:53:56;;;;;;;5.25;2.53;;;24.00;45.80;;;;;;5036693;28;20036;-72
2023/06/04 10:56:29;;;;;;;7.15;2.70;;;23.90;45.70;;;;;;5037847;28;20081;-73
2023/06/04 10:58:55;;;;;;;3.90;2.80;;;23.80;46.10;;;;;;5040923;28;20438;-73
2023/06/04 11:01:31;;;;;;;6.72;2.90;;;23.90;46.70;;;;;;5037380;28;20013;-73
2023/06/04 11:03:57;;;;;;;4.88;2.45;;;24.10;45.30;;;;;;5036260;28;20010;-72
2023/06/04 11:06:27;;;;;;;4.43;2.78;;;24.10;45.80;;;;;;5037063;28;20114;-73
2023/06/04 11:09:03;;;;;;;3.63;2.45;;;24.10;45.80;;;;;;5035774;28;20044;-73
2023/06/04 11:11:29;;;;;;;6.75;2.58;;;24.20;45.20;;;;;;5043413;28;20549;-74
2023/06/04 11:13:55;;;;;;;2.95;2.67;;;23.80;45.90;;;;;;5053612;28;20082;-73
2023/06/04 11:16:21;;;;;;;4.43;2.70;;;23.70;45.90;;;;;;5044493;28;20073;-73
2023/06/04 11:18:57;;;;;;;5.43;2.55;;;23.70;46.20;;;;;;5034975;28;20033;-73
2023/06/04 11:21:23;;;;;;;3.65;2.60;;;23.90;45.90;;;;;;5034814;28;20018;-73
2023/06/04 11:23:54;;;;;;;3.03;2.60;;;24.10;45.60;;;;;;5035500;28;20128;-74
2023/06/04 11:26:21;;;;;;;2.90;2.60;;;24.30;45.30;;;;;;5034771;28;20032;-73
2023/06/04 11:28:49;;;;;;;3.15;2.30;;;24.50;44.90;;;;;;5035443;28;20031;-73
2023/06/04 11:31:15;;;;;;;3.55;2.58;;;24.50;44.40;;;;;;5035614;28;20095;-74
2023/06/04 11:33:47;;;;;;;3.35;2.50;;;24.30;44.10;;;;;;5034981;28;20429;-73
2023/06/04 11:36:26;;;;;;;3.40;2.65;;;24.20;44.90;;;;;;5034383;28;20053;-75
2023/06/04 11:39:03;;;;;;;7.63;3.00;;;24.10;45.30;;;;;;5035290;28;20490;-73
2023/06/04 11:41:30;;;;;;;2.63;2.42;;;24.30;45.10;;;;;;5042089;28;20032;-73
2023/06/04 11:43:57;;;;;;;5.55;2.45;;;24.50;44.80;;;;;;5035279;28;20378;-72
2023/06/04 11:46:23;;;;;;;2.50;2.30;;;24.80;44.60;;;;;;5034556;28;20083;-74
2023/06/04 11:48:51;;;;;;;3.85;3.08;;;25.00;44.00;;;;;;5035622;28;20390;-74
2023/06/04 11:51:16;;;;;;;4.07;2.53;;;25.10;43.50;;;;;;5035412;28;20028;-73
2023/06/04 11:53:42;;;;;;;3.08;2.22;;;25.00;43.50;;;;;;5035206;28;20026;-74
2023/06/04 11:56:09;;;;;;;8.88;2.70;;;25.00;43.90;;;;;;5034608;28;20126;-74
2023/06/04 11:58:35;;;;;;;4.38;2.75;;;25.10;43.00;;;;;;5034765;28;20109;-74
2023/06/04 12:01:01;;;;;;;2.55;2.35;;;24.80;43.00;;;;;;5034871;28;20120;-74
2023/06/04 12:03:42;;;;;;;4.50;2.08;;;24.70;43.80;;;;;;5035492;28;20053;-74
2023/06/04 12:06:11;;;;;;;3.72;2.60;;;24.80;44.10;;;;;;5034632;28;20390;-74
2023/06/04 12:08:51;;;;;;;3.42;2.40;;;24.90;44.00;;;;;;5035612;28;20044;-74
2023/06/04 12:11:34;;;;;;;3.05;2.55;;;25.20;43.60;;;;;;5029552;28;20120;-74
2023/06/04 12:14:06;;;;;;;3.85;2.25;;;25.40;42.90;;;;;;5055344;28;20036;-73
2023/06/04 12:16:35;;;;;;;3.60;2.60;;;25.50;43.00;;;;;;5054524;28;20059;-73
2023/06/04 12:19:12;;;;;;;2.45;2.25;;;25.50;42.70;;;;;;5039570;28;20091;-75
2023/06/04 12:21:39;;;;;;;4.80;2.85;;;25.70;43.00;;;;;;5034951;28;20028;-74
2023/06/04 12:24:12;;;;;;;5.13;3.05;;;25.80;42.40;;;;;;5035078;28;20022;-74
2023/06/04 12:26:40;;;;;;;3.55;2.63;;;25.80;42.70;;;;;;5033406;28;20387;-74
2023/06/04 12:29:14;;;;;;;3.55;2.75;;;25.80;42.50;;;;;;5033543;28;20025;-74
2023/06/04 12:31:45;;;;;;;3.17;2.70;;;25.70;42.00;;;;;;5035085;28;20555;-74
2023/06/04 12:34:13;;;;;;;5.05;3.20;;;25.60;42.60;;;;;;5034749;28;20032;-72
2023/06/04 12:36:38;;;;;;;4.28;2.85;;;25.60;43.00;;;;;;5034230;28;20152;-73
2023/06/04 12:39:07;;;;;;;3.08;2.78;;;25.60;42.00;;;;;;5034706;28;20080;-73
2023/06/04 12:41:33;;;;;;;3.15;2.67;;;25.40;41.90;;;;;;5053781;28;20032;-73
2023/06/04 12:44:00;;;;;;;4.72;2.95;;;25.40;42.40;;;;;;5032773;28;20109;-74
2023/06/04 12:46:26;;;;;;;2.40;2.20;;;25.50;41.80;;;;;;5035111;28;20076;-73
2023/06/04 12:48:53;;;;;;;3.35;2.38;;;25.50;42.10;;;;;;5035109;28;20022;-73
2023/06/04 12:51:20;;;;;;;4.20;2.53;;;25.50;42.40;;;;;;5034993;28;20423;-73